createdAt,value
2019-06-20T00:00:57.697Z,11.77
2019-06-20T00:03:25.271Z,9.77
2019-06-20T00:05:52.899Z,7.80
2019-06-20T00:08:20.523Z,7.70
2019-06-20T00:10:48.145Z,6.80
2019-06-20T00:13:15.810Z,6.63
2019-06-20T00:15:43.461Z,7.90
2019-06-20T00:18:11.101Z,6.70
2019-06-20T00:20:38.730Z,6.10
2019-06-20T00:23:06.366Z,6.07
2019-06-20T00:25:34.014Z,6.00
2019-06-20T00:28:01.658Z,6.60
2019-06-20T00:30:29.586Z,5.63
2019-06-20T00:32:57.288Z,5.40
2019-06-20T00:35:24.977Z,5.97
2019-06-20T00:37:52.556Z,6.00
2019-06-20T00:40:20.182Z,6.33
2019-06-20T00:42:47.840Z,6.47
2019-06-20T00:45:15.621Z,6.00
2019-06-20T00:47:43.248Z,5.90
2019-06-20T00:50:10.981Z,6.73
2019-06-20T00:52:38.603Z,6.53
2019-06-20T00:55:06.345Z,6.87
2019-06-20T00:57:34.090Z,6.47
2019-06-20T01:00:01.757Z,7.13
2019-06-20T01:02:29.399Z,6.87
2019-06-20T01:04:57.069Z,7.60
2019-06-20T01:07:24.868Z,7.80
2019-06-20T01:09:52.510Z,7.93
2019-06-20T01:12:20.216Z,7.90
2019-06-20T01:14:47.889Z,8.43
2019-06-20T01:17:15.506Z,7.60
2019-06-20T01:19:43.182Z,8.40
2019-06-20T01:22:10.771Z,9.13
2019-06-20T01:24:38.415Z,9.60
2019-06-20T01:27:06.040Z,9.43
2019-06-20T01:29:33.712Z,10.37
2019-06-20T01:32:01.358Z,10.30
2019-06-20T01:34:29.014Z,10.57
2019-06-20T01:36:58.424Z,11.23
2019-06-20T01:39:26.085Z,12.90
2019-06-20T01:41:53.684Z,13.13
2019-06-20T01:44:21.349Z,12.83
2019-06-20T01:46:48.965Z,13.58
2019-06-20T01:49:16.603Z,14.15
2019-06-20T01:51:44.230Z,19.50
2019-06-20T01:54:11.910Z,18.37
2019-06-20T01:56:39.494Z,18.20
2019-06-20T01:59:07.133Z,19.33
2019-06-20T02:01:34.752Z,18.97
2019-06-20T02:04:02.386Z,20.62
2019-06-20T02:06:29.976Z,22.57
2019-06-20T02:08:57.653Z,21.40
2019-06-20T02:11:25.235Z,21.70
2019-06-20T02:14:06.371Z,21.90
2019-06-20T02:16:22.321Z,21.65
2019-06-20T02:18:50.015Z,23.22
2019-06-20T02:21:17.663Z,25.03
2019-06-20T02:23:45.318Z,25.93
2019-06-20T02:26:12.977Z,27.57
2019-06-20T02:28:40.597Z,28.42
2019-06-20T02:31:08.202Z,29.15
2019-06-20T02:33:35.828Z,27.95
2019-06-20T02:36:03.491Z,28.47
2019-06-20T02:38:31.205Z,27.50
2019-06-20T02:40:58.799Z,27.50
2019-06-20T02:43:26.636Z,29.07
2019-06-20T02:45:54.285Z,29.70
2019-06-20T02:48:21.948Z,27.13
2019-06-20T02:50:49.560Z,28.92
2019-06-20T02:53:17.182Z,30.63
2019-06-20T02:55:44.790Z,30.00
2019-06-20T02:58:12.406Z,32.17
2019-06-20T03:00:54.485Z,31.10
2019-06-20T03:03:22.150Z,31.27
2019-06-20T03:05:49.781Z,30.00
2019-06-20T03:08:17.385Z,29.85
2019-06-20T03:10:45.009Z,29.50
2019-06-20T03:13:12.633Z,30.13
2019-06-20T03:15:40.252Z,31.60
2019-06-20T03:18:07.924Z,31.60
2019-06-20T03:20:35.564Z,31.60
2019-06-20T03:23:03.274Z,32.03
2019-06-20T03:25:30.913Z,31.67
2019-06-20T03:27:58.613Z,31.93
2019-06-20T03:30:26.293Z,31.80
2019-06-20T03:32:54.042Z,32.15
2019-06-20T03:35:21.727Z,32.30
2019-06-20T03:37:50.283Z,30.92
2019-06-20T03:40:18.267Z,30.57
2019-06-20T03:42:47.163Z,31.67
2019-06-20T03:45:14.909Z,31.00
2019-06-20T03:47:42.677Z,32.83
2019-06-20T03:50:11.437Z,31.40
2019-06-20T03:52:39.385Z,30.37
2019-06-20T03:55:07.007Z,29.87
2019-06-20T03:57:34.678Z,30.27
2019-06-20T04:00:02.715Z,27.97
2019-06-20T04:02:30.499Z,28.83
2019-06-20T04:04:58.138Z,30.23
2019-06-20T04:07:25.788Z,28.17
2019-06-20T04:09:53.410Z,29.10
2019-06-20T04:12:21.046Z,31.50
2019-06-20T04:14:49.187Z,32.98
2019-06-20T04:17:16.970Z,33.60
2019-06-20T04:19:44.578Z,34.97
2019-06-20T04:22:12.192Z,34.80
2019-06-20T04:24:39.879Z,33.92
2019-06-20T04:27:08.821Z,33.48
2019-06-20T04:29:36.486Z,34.13
2019-06-20T04:32:04.142Z,33.48
2019-06-20T04:34:31.787Z,33.87
2019-06-20T04:36:59.447Z,37.42
2019-06-20T04:39:27.083Z,37.70
2019-06-20T04:41:54.713Z,39.33
2019-06-20T04:44:22.355Z,40.13
2019-06-20T04:47:09.467Z,38.92
2019-06-20T04:49:37.133Z,37.57
2019-06-20T04:52:04.772Z,37.03
2019-06-20T04:54:32.414Z,36.87
2019-06-20T04:57:00.060Z,34.98
2019-06-20T04:59:27.735Z,36.70
2019-06-20T05:01:55.317Z,36.27
2019-06-20T05:04:22.999Z,35.80
2019-06-20T05:06:53.150Z,34.15
2019-06-20T05:09:23.209Z,32.60
2019-06-20T05:11:50.856Z,33.43
2019-06-20T05:14:18.570Z,35.17
2019-06-20T05:16:46.223Z,33.35
2019-06-20T05:19:13.993Z,33.10
2019-06-20T05:21:41.692Z,32.60
2019-06-20T05:24:09.343Z,36.28
2019-06-20T05:26:36.964Z,33.85
2019-06-20T05:29:05.503Z,34.63
2019-06-20T05:31:33.352Z,30.90
2019-06-20T05:34:00.963Z,32.83
2019-06-20T05:36:28.649Z,32.85
2019-06-20T05:38:56.242Z,31.02
2019-06-20T05:41:23.894Z,31.20
2019-06-20T05:43:51.517Z,30.85
2019-06-20T05:46:19.133Z,31.80
2019-06-20T05:48:46.730Z,29.90
2019-06-20T05:51:14.375Z,30.35
2019-06-20T05:53:41.996Z,29.25
2019-06-20T05:56:09.630Z,29.18
2019-06-20T05:58:37.429Z,28.87
2019-06-20T06:01:05.210Z,28.55
2019-06-20T06:03:33.601Z,27.62
2019-06-20T06:06:01.425Z,27.77
2019-06-20T06:08:29.629Z,29.80
2019-06-20T06:10:57.268Z,28.17
2019-06-20T06:13:24.882Z,28.02
2019-06-20T06:15:52.512Z,30.10
2019-06-20T06:18:20.133Z,29.30
2019-06-20T06:20:47.810Z,28.25
2019-06-20T06:23:15.499Z,30.32
2019-06-20T06:25:43.160Z,30.30
2019-06-20T06:28:12.472Z,30.20
2019-06-20T06:30:40.286Z,29.50
2019-06-20T06:33:07.923Z,30.50
2019-06-20T06:35:45.551Z,28.57
2019-06-20T06:38:13.146Z,26.70
2019-06-20T06:40:40.940Z,26.77
2019-06-20T06:43:08.636Z,27.30
2019-06-20T06:45:36.245Z,26.62
2019-06-20T06:48:03.982Z,26.93
2019-06-20T06:50:31.719Z,25.12
2019-06-20T06:52:59.348Z,26.85
2019-06-20T06:55:28.100Z,25.80
2019-06-20T06:57:55.706Z,23.40
2019-06-20T07:00:23.610Z,21.57
2019-06-20T07:02:51.245Z,22.13
2019-06-20T07:05:19.423Z,22.35
2019-06-20T07:07:47.056Z,21.17
2019-06-20T07:10:15.025Z,21.07
2019-06-20T07:12:42.672Z,19.20
2019-06-20T07:15:10.432Z,18.82
2019-06-20T07:17:38.098Z,18.27
2019-06-20T07:20:09.454Z,18.00
2019-06-20T07:22:37.187Z,18.85
2019-06-20T07:25:07.764Z,18.60
2019-06-20T07:27:35.417Z,18.32
2019-06-20T07:30:03.836Z,18.92
2019-06-20T07:32:31.475Z,18.65
2019-06-20T07:34:59.081Z,20.32
2019-06-20T07:37:26.756Z,20.12
2019-06-20T07:39:54.394Z,18.42
2019-06-20T07:42:22.237Z,17.52
2019-06-20T07:44:50.269Z,16.05
2019-06-20T07:47:18.289Z,18.00
2019-06-20T07:49:46.093Z,17.80
2019-06-20T07:52:14.062Z,17.95
2019-06-20T07:55:07.559Z,16.50
2019-06-20T07:57:35.259Z,18.27
2019-06-20T08:00:03.757Z,18.52
2019-06-20T08:02:31.408Z,17.12
2019-06-20T08:05:00.748Z,17.48
2019-06-20T08:07:28.424Z,17.23
2019-06-20T08:09:56.065Z,18.05
2019-06-20T08:12:24.524Z,15.50
2019-06-20T08:14:52.178Z,15.80
2019-06-20T08:17:34.352Z,15.30
2019-06-20T08:19:49.267Z,14.18
2019-06-20T08:22:16.916Z,12.55
2019-06-20T08:24:44.569Z,11.68
2019-06-20T08:27:14.876Z,11.85
2019-06-20T08:29:41.666Z,11.12
2019-06-20T08:32:09.304Z,11.63
2019-06-20T08:34:37.058Z,13.85
2019-06-20T08:37:04.702Z,13.45
2019-06-20T08:39:32.345Z,11.65
2019-06-20T08:42:00.508Z,12.45
2019-06-20T08:44:28.266Z,13.43
2019-06-20T08:47:00.233Z,12.75
2019-06-20T08:49:25.419Z,15.00
2019-06-20T08:51:53.056Z,17.27
2019-06-20T08:54:20.681Z,15.85
2019-06-20T08:56:48.312Z,14.23
2019-06-20T08:59:24.458Z,10.58
2019-06-20T09:01:45.401Z,11.78
2019-06-20T09:04:13.103Z,14.60
2019-06-20T09:06:40.722Z,13.32
2019-06-20T09:09:08.615Z,13.20
2019-06-20T09:11:36.285Z,12.50
2019-06-20T09:14:04.272Z,12.93
2019-06-20T09:16:31.883Z,10.03
2019-06-20T09:19:00.456Z,9.63
2019-06-20T09:21:28.251Z,8.88
2019-06-20T09:23:55.909Z,8.60
2019-06-20T09:26:23.636Z,9.43
2019-06-20T09:28:52.701Z,8.68
2019-06-20T09:31:20.747Z,8.15
2019-06-20T09:33:48.420Z,9.05
2019-06-20T09:36:16.072Z,10.38
2019-06-20T09:38:43.717Z,9.18
2019-06-20T09:41:11.340Z,9.20
2019-06-20T09:43:38.961Z,9.28
2019-06-20T09:46:06.723Z,8.90
2019-06-20T09:48:34.414Z,9.98
2019-06-20T09:51:04.460Z,10.60
2019-06-20T09:53:32.016Z,9.55
2019-06-20T09:55:59.654Z,10.38
2019-06-20T09:58:27.275Z,11.08
2019-06-20T10:00:55.167Z,10.55
2019-06-20T10:03:22.928Z,11.50
2019-06-20T10:05:50.736Z,11.40
2019-06-20T10:08:18.406Z,11.00
2019-06-20T10:10:47.073Z,10.53
2019-06-20T10:13:15.597Z,10.75
2019-06-20T10:15:44.926Z,12.68
2019-06-20T10:18:13.014Z,11.08
2019-06-20T10:20:40.692Z,9.20
2019-06-20T10:23:08.572Z,8.98
2019-06-20T10:25:36.529Z,8.18
2019-06-20T10:28:04.275Z,9.18
2019-06-20T10:30:31.960Z,7.72
2019-06-20T10:33:00.612Z,7.60
2019-06-20T10:35:28.264Z,7.33
2019-06-20T10:37:57.217Z,8.53
2019-06-20T10:40:25.186Z,8.55
2019-06-20T10:42:53.105Z,8.40
2019-06-20T10:45:22.759Z,7.80
2019-06-20T10:47:50.980Z,8.20
2019-06-20T10:50:19.037Z,7.83
2019-06-20T10:52:48.058Z,7.22
2019-06-20T10:55:16.153Z,7.35
2019-06-20T10:57:44.544Z,7.10
2019-06-20T11:00:26.816Z,7.90
2019-06-20T11:02:43.410Z,7.45
2019-06-20T11:05:11.943Z,7.85
2019-06-20T11:07:40.742Z,8.43
2019-06-20T11:10:09.619Z,8.55
2019-06-20T11:12:45.694Z,7.37
2019-06-20T11:15:06.968Z,8.08
2019-06-20T11:17:38.558Z,7.60
2019-06-20T11:20:06.510Z,7.95
2019-06-20T11:22:34.184Z,7.95
2019-06-20T11:25:02.052Z,7.42
2019-06-20T11:27:29.738Z,9.28
2019-06-20T11:29:57.391Z,8.63
2019-06-20T11:32:25.783Z,8.63
2019-06-20T11:34:53.430Z,8.73
2019-06-20T11:37:21.070Z,9.05
2019-06-20T11:39:51.284Z,10.50
2019-06-20T11:42:18.286Z,9.78
2019-06-20T11:44:47.421Z,9.65
2019-06-20T11:47:15.177Z,9.70
2019-06-20T11:49:42.805Z,9.48
2019-06-20T11:52:10.464Z,9.80
2019-06-20T11:54:38.283Z,10.13
2019-06-20T11:57:05.964Z,10.13
2019-06-20T11:59:33.588Z,11.12
2019-06-20T12:02:03.018Z,11.12
2019-06-20T12:04:30.724Z,11.03
2019-06-20T12:06:58.381Z,13.50
2019-06-20T12:09:26.003Z,12.35
2019-06-20T12:11:53.643Z,12.82
2019-06-20T12:14:21.281Z,11.65
2019-06-20T12:16:48.897Z,12.00
2019-06-20T12:19:16.528Z,11.70
2019-06-20T12:21:44.761Z,11.20
2019-06-20T12:24:12.416Z,11.53
2019-06-20T12:26:40.790Z,11.65
2019-06-20T12:29:08.812Z,10.78
2019-06-20T12:31:36.473Z,11.10
2019-06-20T12:34:05.505Z,11.40
2019-06-20T12:36:33.210Z,10.70
2019-06-20T12:39:00.831Z,11.85
2019-06-20T12:41:28.465Z,11.35
2019-06-20T12:43:56.355Z,10.43
2019-06-20T12:46:27.584Z,9.43
2019-06-20T12:48:56.448Z,9.43
2019-06-20T12:51:24.078Z,9.88
2019-06-20T12:53:51.720Z,10.82
2019-06-20T12:56:19.342Z,10.80
2019-06-20T12:58:48.525Z,10.68
2019-06-20T13:01:16.331Z,11.93
2019-06-20T13:03:43.988Z,10.78
2019-06-20T13:06:11.710Z,9.53
2019-06-20T13:08:40.685Z,8.53
2019-06-20T13:11:08.841Z,9.58
2019-06-20T13:13:38.770Z,8.65
2019-06-20T13:16:05.901Z,7.22
2019-06-20T13:18:33.894Z,7.45
2019-06-20T13:21:01.508Z,7.42
2019-06-20T13:23:29.134Z,6.72
2019-06-20T13:25:56.741Z,7.78
2019-06-20T13:28:24.447Z,6.80
2019-06-20T13:30:54.049Z,7.70
2019-06-20T13:33:21.660Z,7.03
2019-06-20T13:35:50.755Z,6.97
2019-06-20T13:38:18.602Z,7.37
2019-06-20T13:40:47.250Z,7.75
2019-06-20T13:43:14.890Z,7.10
2019-06-20T13:45:42.535Z,6.47
2019-06-20T13:48:10.134Z,6.53
2019-06-20T13:50:38.667Z,6.08
2019-06-20T13:53:07.201Z,6.53
2019-06-20T13:55:34.830Z,6.75
2019-06-20T13:58:02.520Z,6.65
2019-06-20T14:00:31.809Z,6.05
2019-06-20T14:02:59.454Z,6.08
2019-06-20T14:05:27.104Z,7.50
2019-06-20T14:07:56.021Z,7.92
2019-06-20T14:10:23.785Z,7.72
2019-06-20T14:12:51.425Z,8.23
2019-06-20T14:15:19.165Z,7.95
2019-06-20T14:17:47.185Z,7.90
2019-06-20T14:20:15.511Z,8.13
2019-06-20T14:22:43.169Z,9.48
2019-06-20T14:25:11.037Z,8.20
2019-06-20T14:27:38.840Z,7.83
2019-06-20T14:30:07.496Z,7.47
2019-06-20T14:32:35.113Z,8.83
2019-06-20T14:35:02.794Z,7.42
2019-06-20T14:37:30.379Z,7.25
2019-06-20T14:39:59.169Z,7.80
2019-06-20T14:42:27.119Z,7.10
2019-06-20T14:44:54.825Z,7.30
2019-06-20T14:47:22.468Z,8.20
2019-06-20T14:49:50.100Z,7.67
2019-06-20T14:52:17.720Z,7.08
2019-06-20T14:54:45.894Z,7.17
2019-06-20T14:57:13.959Z,7.67
2019-06-20T14:59:41.579Z,6.70
2019-06-20T15:02:09.212Z,7.17
2019-06-20T15:04:36.822Z,7.35
2019-06-20T15:07:04.574Z,7.53
2019-06-20T15:09:32.215Z,6.45
2019-06-20T15:11:59.906Z,5.25
2019-06-20T15:14:27.545Z,5.20
2019-06-20T15:16:57.198Z,5.22
2019-06-20T15:19:24.809Z,5.80
2019-06-20T15:21:52.427Z,5.45
2019-06-20T15:24:20.020Z,6.37
2019-06-20T15:26:48.996Z,6.10
2019-06-20T15:29:17.071Z,5.75
2019-06-20T15:31:45.892Z,6.42
2019-06-20T15:34:14.117Z,6.62
2019-06-20T15:36:41.760Z,7.45
2019-06-20T15:39:09.363Z,7.58
2019-06-20T15:41:37.020Z,7.20
2019-06-20T15:44:04.650Z,6.40
2019-06-20T15:46:32.280Z,6.30
2019-06-20T15:49:01.126Z,6.10
2019-06-20T15:51:29.337Z,6.37
2019-06-20T15:53:57.090Z,5.58
2019-06-20T15:56:24.700Z,5.83
2019-06-20T15:58:52.347Z,5.42
2019-06-20T16:01:22.989Z,6.30
2019-06-20T16:03:50.634Z,5.85
2019-06-20T16:06:18.233Z,6.05
2019-06-20T16:08:45.878Z,6.10
2019-06-20T16:11:13.505Z,5.67
2019-06-20T16:13:41.200Z,5.50
2019-06-20T16:16:08.818Z,5.65
2019-06-20T16:18:36.447Z,5.80
2019-06-20T16:21:04.073Z,5.40
2019-06-20T16:23:31.739Z,7.62
2019-06-20T16:25:59.352Z,6.05
2019-06-20T16:28:27.102Z,6.17
2019-06-20T16:31:08.002Z,6.47
2019-06-20T16:33:25.678Z,7.78
2019-06-20T16:35:53.583Z,7.05
2019-06-20T16:38:21.201Z,6.92
2019-06-20T16:40:48.829Z,7.12
2019-06-20T16:43:18.270Z,6.85
2019-06-20T16:45:45.877Z,7.20
2019-06-20T16:48:13.735Z,8.38
2019-06-20T16:50:41.338Z,8.60
2019-06-20T16:53:09.017Z,8.28
2019-06-20T16:55:36.581Z,8.65
2019-06-20T16:58:04.310Z,9.33
2019-06-20T17:00:32.008Z,9.80
2019-06-20T17:02:59.652Z,12.03
2019-06-20T17:05:27.241Z,10.98
2019-06-20T17:07:54.917Z,11.55
2019-06-20T17:10:24.378Z,12.30
2019-06-20T17:12:52.373Z,13.50
2019-06-20T17:15:20.579Z,13.93
2019-06-20T17:17:48.625Z,14.55
2019-06-20T17:20:16.502Z,13.55
2019-06-20T17:22:44.407Z,14.30
2019-06-20T17:25:12.822Z,13.70
2019-06-20T17:27:40.437Z,14.60
2019-06-20T17:30:08.918Z,16.45
2019-06-20T17:32:37.733Z,15.13
2019-06-20T17:35:05.927Z,16.50
2019-06-20T17:37:33.556Z,16.30
2019-06-20T17:40:01.441Z,15.43
2019-06-20T17:42:29.190Z,14.55
2019-06-20T17:44:56.772Z,15.28
2019-06-20T17:47:26.104Z,15.32
2019-06-20T17:49:53.829Z,15.03
2019-06-20T17:52:21.433Z,14.78
2019-06-20T17:54:49.082Z,14.45
2019-06-20T17:57:16.692Z,14.70
2019-06-20T17:59:44.312Z,14.68
2019-06-20T18:02:12.021Z,13.40
2019-06-20T18:04:39.663Z,11.18
2019-06-20T18:07:07.285Z,12.35
2019-06-20T18:09:34.913Z,12.98
2019-06-20T18:12:02.597Z,11.28
2019-06-20T18:14:30.318Z,13.03
2019-06-20T18:16:57.951Z,13.32
2019-06-20T18:19:25.593Z,12.58
2019-06-20T18:21:53.246Z,12.40
2019-06-20T18:24:20.912Z,13.98
2019-06-20T18:26:48.524Z,13.10
2019-06-20T18:29:16.209Z,14.03
2019-06-20T18:31:43.928Z,13.95
2019-06-20T18:34:11.641Z,14.85
2019-06-20T18:36:39.312Z,13.30
2019-06-20T18:39:07.209Z,13.32
2019-06-20T18:41:34.877Z,14.38
2019-06-20T18:44:02.634Z,14.25
2019-06-20T18:46:30.258Z,15.80
2019-06-20T18:48:57.918Z,15.63
2019-06-20T18:51:27.385Z,16.67
2019-06-20T18:53:55.060Z,16.03
2019-06-20T18:56:22.842Z,17.47
2019-06-20T18:58:50.483Z,16.85
2019-06-20T19:01:18.151Z,16.17
2019-06-20T19:03:45.769Z,16.00
2019-06-20T19:06:13.405Z,17.23
2019-06-20T19:08:40.998Z,16.27
2019-06-20T19:11:08.604Z,17.80
2019-06-20T19:13:36.189Z,18.33
2019-06-20T19:16:03.791Z,18.80
2019-06-20T19:18:31.425Z,17.42
2019-06-20T19:20:59.180Z,19.70
2019-06-20T19:23:26.830Z,19.02
2019-06-20T19:25:54.471Z,19.67
2019-06-20T19:28:22.118Z,18.67
2019-06-20T19:30:50.272Z,19.53
2019-06-20T19:33:18.154Z,20.05
2019-06-20T19:35:45.814Z,20.35
2019-06-20T19:38:13.434Z,21.30
2019-06-20T19:40:43.461Z,20.27
2019-06-20T19:43:11.085Z,20.23
2019-06-20T19:45:38.717Z,21.23
2019-06-20T19:48:06.320Z,23.17
2019-06-20T19:50:34.138Z,22.80
2019-06-20T19:53:01.777Z,22.70
2019-06-20T19:55:29.432Z,21.62
2019-06-20T19:57:57.074Z,22.52
2019-06-20T20:00:24.718Z,22.20
2019-06-20T20:02:52.513Z,22.80
2019-06-20T20:05:20.270Z,21.82
2019-06-20T20:07:48.066Z,23.00
2019-06-20T20:10:18.444Z,21.83
2019-06-20T20:12:46.062Z,22.10
2019-06-20T20:15:13.703Z,21.40
2019-06-20T20:17:41.377Z,22.85
2019-06-20T20:20:09.142Z,23.40
2019-06-20T20:22:36.798Z,24.13
2019-06-20T20:25:05.035Z,25.07
2019-06-20T20:27:32.706Z,25.13
2019-06-20T20:30:00.318Z,25.07
2019-06-20T20:32:28.014Z,25.83
2019-06-20T20:34:55.608Z,25.03
2019-06-20T20:37:23.253Z,26.20
2019-06-20T20:39:50.878Z,27.03
2019-06-20T20:42:18.530Z,26.63
2019-06-20T20:44:46.219Z,27.70
2019-06-20T20:47:13.816Z,27.40
2019-06-20T20:49:41.380Z,30.40
2019-06-20T20:52:08.992Z,31.37
2019-06-20T20:54:36.623Z,29.43
2019-06-20T20:57:04.280Z,31.10
2019-06-20T20:59:31.894Z,32.37
2019-06-20T21:01:59.571Z,32.60
2019-06-20T21:04:27.163Z,32.70
2019-06-20T21:06:54.788Z,33.73
2019-06-20T21:09:22.398Z,33.50
2019-06-20T21:11:50.032Z,30.13
2019-06-20T21:14:17.741Z,30.07
2019-06-20T21:16:45.331Z,31.30
2019-06-20T21:19:12.992Z,31.43
2019-06-20T21:21:40.611Z,33.03
2019-06-20T21:24:08.188Z,32.73
2019-06-20T21:26:49.081Z,34.63
2019-06-20T21:29:05.364Z,34.53
2019-06-20T21:31:32.906Z,34.93
2019-06-20T21:34:00.483Z,34.70
2019-06-20T21:36:28.065Z,34.63
2019-06-20T21:38:55.640Z,33.77
2019-06-20T21:41:23.368Z,34.43
2019-06-20T21:43:52.170Z,34.20
2019-06-20T21:46:19.771Z,34.27
2019-06-20T21:48:47.396Z,32.00
2019-06-20T21:51:15.034Z,32.03
2019-06-20T21:53:42.634Z,30.97
2019-06-20T21:56:10.250Z,28.90
2019-06-20T21:58:37.902Z,30.70
2019-06-20T22:01:07.137Z,29.03
2019-06-20T22:03:34.738Z,28.37
2019-06-20T22:06:02.306Z,29.00
2019-06-20T22:08:29.946Z,26.10
2019-06-20T22:10:57.606Z,23.80
2019-06-20T22:13:25.299Z,23.07
2019-06-20T22:15:52.868Z,22.40
2019-06-20T22:18:20.579Z,22.30
2019-06-20T22:20:48.169Z,24.13
2019-06-20T22:23:15.754Z,23.43
2019-06-20T22:25:43.363Z,22.47
2019-06-20T22:28:10.948Z,21.77
2019-06-20T22:30:40.677Z,22.50
2019-06-20T22:33:08.260Z,21.80
2019-06-20T22:35:35.873Z,22.83
2019-06-20T22:38:04.797Z,23.93
2019-06-20T22:40:32.409Z,22.77
2019-06-20T22:42:59.990Z,24.20
2019-06-20T22:45:27.597Z,26.87
2019-06-20T22:47:55.201Z,24.77
2019-06-20T22:50:22.805Z,26.03
2019-06-20T22:52:50.371Z,28.10
2019-06-20T22:55:18.121Z,29.60
2019-06-20T22:57:45.743Z,27.40
2019-06-20T23:00:13.598Z,28.50
2019-06-20T23:02:41.240Z,27.83
2019-06-20T23:05:09.002Z,30.10
2019-06-20T23:07:36.612Z,29.87
2019-06-20T23:10:10.382Z,30.27
2019-06-20T23:12:35.207Z,26.17
2019-06-20T23:15:03.006Z,25.43
2019-06-20T23:17:30.629Z,23.83
2019-06-20T23:19:58.273Z,22.87
2019-06-20T23:22:25.884Z,21.80
2019-06-20T23:24:53.536Z,21.53
2019-06-20T23:27:21.180Z,21.10
2019-06-20T23:29:48.814Z,21.73
2019-06-20T23:32:16.438Z,20.83
2019-06-20T23:34:44.071Z,20.00
2019-06-20T23:37:13.217Z,19.33
2019-06-20T23:39:41.043Z,17.27
2019-06-20T23:42:08.717Z,18.37
2019-06-20T23:44:36.370Z,18.07
2019-06-20T23:47:04.016Z,18.27
2019-06-20T23:49:31.658Z,17.80
2019-06-20T23:52:04.623Z,17.27
2019-06-20T23:54:34.475Z,15.57
2019-06-20T23:57:02.134Z,16.20
2019-06-20T23:59:29.810Z,15.13
